createdAt,value
2018-07-04T00:01:21.715Z,14.90
2018-07-04T00:04:08.454Z,14.90
2018-07-04T00:06:55.071Z,14.90
2018-07-04T00:09:41.679Z,15.10
2018-07-04T00:12:27.866Z,14.80
2018-07-04T00:15:14.333Z,14.80
2018-07-04T00:18:00.727Z,14.80
2018-07-04T00:20:47.137Z,14.80
2018-07-04T00:23:33.527Z,14.80
2018-07-04T00:26:19.793Z,14.70
2018-07-04T00:29:06.109Z,14.70
2018-07-04T00:31:52.658Z,14.80
2018-07-04T00:34:38.836Z,14.80
2018-07-04T00:37:25.166Z,14.70
2018-07-04T00:40:12.737Z,14.70
2018-07-04T00:42:59.275Z,14.70
2018-07-04T00:45:45.547Z,14.60
2018-07-04T00:48:31.831Z,14.60
2018-07-04T00:51:18.082Z,14.60
2018-07-04T00:54:04.306Z,14.50
2018-07-04T00:56:52.904Z,14.50
2018-07-04T00:59:40.979Z,14.60
2018-07-04T01:02:27.977Z,14.80
2018-07-04T01:05:14.880Z,14.50
2018-07-04T01:08:01.097Z,14.50
2018-07-04T01:10:47.463Z,14.90
2018-07-04T01:13:34.074Z,14.40
2018-07-04T01:16:20.223Z,14.30
2018-07-04T01:19:06.590Z,14.20
2018-07-04T01:21:53.023Z,14.20
2018-07-04T01:24:39.198Z,14.20
2018-07-04T01:27:25.581Z,14.10
2018-07-04T01:30:11.862Z,14.10
2018-07-04T01:32:58.199Z,14.10
2018-07-04T01:35:44.328Z,14.00
2018-07-04T01:41:11.081Z,13.90
2018-07-04T01:43:57.359Z,14.00
2018-07-04T01:46:43.597Z,13.90
2018-07-04T01:49:30.013Z,13.80
2018-07-04T01:52:16.657Z,13.70
2018-07-04T01:55:02.937Z,13.70
2018-07-04T01:57:49.256Z,13.80
2018-07-04T02:00:35.440Z,13.70
2018-07-04T02:03:21.857Z,13.60
2018-07-04T02:06:08.173Z,13.50
2018-07-04T02:08:54.817Z,13.50
2018-07-04T02:11:41.275Z,13.50
2018-07-04T02:14:27.301Z,13.50
2018-07-04T02:17:13.421Z,13.40
2018-07-04T02:19:59.662Z,13.40
2018-07-04T02:22:45.953Z,13.40
2018-07-04T02:25:32.138Z,13.40
2018-07-04T02:28:18.554Z,13.20
2018-07-04T02:31:04.933Z,13.30
2018-07-04T02:33:51.106Z,13.30
2018-07-04T02:36:37.349Z,13.20
2018-07-04T02:39:23.536Z,13.10
2018-07-04T02:42:09.993Z,13.10
2018-07-04T02:44:56.332Z,13.10
2018-07-04T02:47:42.664Z,13.20
2018-07-04T02:50:28.897Z,13.00
2018-07-04T02:53:15.240Z,13.00
2018-07-04T02:56:01.362Z,12.90
2018-07-04T02:58:47.574Z,12.90
2018-07-04T03:01:34.267Z,12.90
2018-07-04T03:04:20.540Z,12.90
2018-07-04T03:07:06.737Z,12.90
2018-07-04T03:09:52.986Z,12.80
2018-07-04T03:12:39.199Z,12.80
2018-07-04T03:15:25.654Z,12.80
2018-07-04T03:18:11.895Z,12.70
2018-07-04T03:20:58.090Z,12.80
2018-07-04T03:23:44.499Z,13.00
2018-07-04T03:26:30.770Z,12.80
2018-07-04T03:29:16.922Z,12.70
2018-07-04T03:32:03.094Z,12.80
2018-07-04T03:34:49.390Z,12.80
2018-07-04T03:37:35.838Z,12.70
2018-07-04T03:40:22.234Z,12.70
2018-07-04T03:43:08.651Z,12.80
2018-07-04T03:45:54.811Z,12.80
2018-07-04T03:48:40.928Z,12.80
2018-07-04T03:51:27.070Z,12.80
2018-07-04T03:54:13.338Z,12.80
2018-07-04T03:56:59.560Z,12.80
2018-07-04T03:59:45.780Z,12.90
2018-07-04T04:02:31.910Z,12.90
2018-07-04T04:05:18.176Z,12.90
2018-07-04T04:08:04.434Z,12.90
2018-07-04T04:10:50.602Z,13.00
2018-07-04T04:13:36.962Z,13.40
2018-07-04T04:16:23.442Z,13.10
2018-07-04T04:19:09.750Z,13.30
2018-07-04T04:21:56.980Z,13.30
2018-07-04T04:24:43.835Z,13.20
2018-07-04T04:27:30.127Z,13.30
2018-07-04T04:30:16.378Z,13.30
2018-07-04T04:33:02.625Z,13.40
2018-07-04T04:35:48.910Z,13.50
2018-07-04T04:38:35.139Z,13.70
2018-07-04T04:41:21.262Z,13.60
2018-07-04T04:44:07.439Z,13.50
2018-07-04T04:46:53.764Z,13.80
2018-07-04T04:49:40.020Z,13.70
2018-07-04T04:52:26.145Z,14.00
2018-07-04T04:55:12.614Z,13.90
2018-07-04T04:57:58.970Z,13.70
2018-07-04T05:00:45.593Z,13.70
2018-07-04T05:03:31.990Z,13.90
2018-07-04T05:06:18.312Z,13.80
2018-07-04T05:09:04.712Z,13.90
2018-07-04T05:11:53.955Z,13.80
2018-07-04T05:14:40.354Z,14.00
2018-07-04T05:17:26.839Z,13.90
2018-07-04T05:20:13.290Z,13.90
2018-07-04T05:22:59.671Z,14.20
2018-07-04T05:25:45.878Z,14.10
2018-07-04T05:28:32.036Z,14.50
2018-07-04T05:31:19.029Z,14.20
2018-07-04T05:34:05.706Z,14.20
2018-07-04T05:36:51.949Z,14.20
2018-07-04T05:39:38.453Z,14.30
2018-07-04T05:42:24.602Z,14.20
2018-07-04T05:45:10.907Z,14.20
2018-07-04T05:47:57.390Z,14.20
2018-07-04T05:50:43.748Z,14.20
2018-07-04T05:53:30.331Z,14.40
2018-07-04T05:56:16.896Z,14.30
2018-07-04T05:59:03.368Z,14.30
2018-07-04T06:01:49.857Z,14.50
2018-07-04T06:04:36.102Z,14.40
2018-07-04T06:07:22.550Z,14.70
2018-07-04T06:10:09.017Z,15.10
2018-07-04T06:12:55.366Z,15.20
2018-07-04T06:15:41.584Z,15.30
2018-07-04T06:18:28.202Z,15.90
2018-07-04T06:21:14.494Z,15.70
2018-07-04T06:24:00.570Z,16.10
2018-07-04T06:26:46.650Z,16.50
2018-07-04T06:29:32.864Z,15.90
2018-07-04T06:32:19.172Z,15.90
2018-07-04T06:35:05.512Z,16.10
2018-07-04T06:37:40.803Z,16.40
2018-07-04T06:40:08.966Z,16.20
2018-07-04T06:42:37.267Z,16.40
2018-07-04T06:45:05.314Z,16.20
2018-07-04T06:47:33.004Z,16.20
2018-07-04T06:50:00.675Z,16.30
2018-07-04T06:52:28.350Z,16.30
2018-07-04T06:54:56.063Z,16.80
2018-07-04T06:57:23.747Z,16.80
2018-07-04T06:59:51.452Z,16.50
2018-07-04T07:02:20.275Z,16.70
2018-07-04T07:05:01.369Z,16.90
2018-07-04T07:07:47.744Z,16.70
2018-07-04T07:10:34.430Z,16.80
2018-07-04T07:13:21.810Z,17.00
2018-07-04T07:18:48.339Z,17.30
2018-07-04T07:21:34.709Z,17.70
2018-07-04T07:24:21.227Z,17.50
2018-07-04T07:27:07.623Z,17.20
2018-07-04T07:29:54.110Z,16.70
2018-07-04T07:32:40.430Z,17.90
2018-07-04T07:35:26.845Z,18.00
2018-07-04T07:38:13.146Z,17.60
2018-07-04T07:40:59.870Z,17.60
2018-07-04T07:43:46.724Z,17.90
2018-07-04T07:46:34.466Z,18.50
2018-07-04T07:49:20.813Z,18.90
2018-07-04T07:52:07.128Z,19.30
2018-07-04T07:54:53.527Z,18.90
2018-07-04T07:57:39.782Z,18.60
2018-07-04T08:00:26.103Z,18.80
2018-07-04T08:03:12.421Z,19.00
2018-07-04T08:05:58.898Z,19.20
2018-07-04T08:08:49.347Z,19.10
2018-07-04T08:11:36.844Z,19.20
2018-07-04T08:14:27.488Z,19.60
2018-07-04T08:17:14.083Z,19.30
2018-07-04T08:20:01.241Z,19.80
2018-07-04T08:22:47.574Z,19.30
2018-07-04T08:25:33.824Z,19.50
2018-07-04T08:28:20.132Z,19.90
2018-07-04T08:31:10.931Z,20.10
2018-07-04T08:33:57.230Z,20.30
2018-07-04T08:36:44.452Z,20.10
2018-07-04T08:39:30.796Z,20.20
2018-07-04T08:42:17.171Z,20.50
2018-07-04T08:45:03.386Z,20.60
2018-07-04T08:47:49.755Z,20.70
2018-07-04T08:50:36.173Z,20.70
2018-07-04T08:53:22.458Z,20.50
2018-07-04T08:56:08.638Z,20.60
2018-07-04T08:58:54.938Z,20.90
2018-07-04T09:01:41.170Z,21.20
2018-07-04T09:04:27.390Z,21.40
2018-07-04T09:07:13.870Z,21.10
2018-07-04T09:10:00.203Z,21.30
2018-07-04T09:12:46.306Z,21.80
2018-07-04T09:15:32.526Z,21.20
2018-07-04T09:20:59.114Z,22.00
2018-07-04T09:23:45.896Z,21.70
2018-07-04T09:26:31.974Z,21.50
2018-07-04T09:29:18.213Z,21.70
2018-07-04T09:32:04.615Z,21.90
2018-07-04T09:34:50.874Z,22.10
2018-07-04T09:37:37.251Z,22.10
2018-07-04T09:40:23.440Z,22.30
2018-07-04T09:43:10.027Z,22.00
2018-07-04T09:45:56.159Z,22.30
2018-07-04T09:48:42.569Z,22.50
2018-07-04T09:51:28.799Z,22.00
2018-07-04T09:54:15.146Z,22.20
2018-07-04T09:57:01.610Z,22.40
2018-07-04T09:59:48.095Z,22.50
2018-07-04T10:02:35.529Z,22.50
2018-07-04T10:05:21.790Z,22.80
2018-07-04T10:08:07.911Z,22.90
2018-07-04T10:10:54.296Z,22.90
2018-07-04T10:13:40.775Z,23.10
2018-07-04T10:16:27.128Z,22.90
2018-07-04T10:19:13.200Z,23.20
2018-07-04T10:21:59.302Z,23.10
2018-07-04T10:24:45.496Z,23.10
2018-07-04T10:27:31.763Z,23.40
2018-07-04T10:30:17.955Z,23.80
2018-07-04T10:33:04.351Z,23.30
2018-07-04T10:35:51.207Z,23.70
2018-07-04T10:38:37.256Z,23.50
2018-07-04T10:41:23.790Z,23.40
2018-07-04T10:44:10.055Z,23.40
2018-07-04T10:46:56.471Z,23.40
2018-07-04T10:49:42.699Z,23.60
2018-07-04T10:52:28.955Z,23.40
2018-07-04T10:55:15.283Z,23.90
2018-07-04T10:58:01.542Z,24.10
2018-07-04T11:00:47.680Z,24.10
2018-07-04T11:03:33.861Z,24.10
2018-07-04T11:06:20.027Z,24.00
2018-07-04T11:09:06.316Z,24.20
2018-07-04T11:11:52.585Z,24.30
2018-07-04T11:14:38.917Z,24.30
2018-07-04T11:17:25.217Z,24.20
2018-07-04T11:20:11.427Z,24.40
2018-07-04T11:22:57.475Z,24.00
2018-07-04T11:25:43.907Z,24.20
2018-07-04T11:28:30.025Z,24.10
2018-07-04T11:33:56.358Z,25.00
2018-07-04T11:36:42.467Z,24.60
2018-07-04T11:39:28.730Z,24.40
2018-07-04T11:42:15.235Z,24.40
2018-07-04T11:45:01.383Z,24.50
2018-07-04T11:47:35.425Z,24.40
2018-07-04T11:50:03.170Z,24.90
2018-07-04T11:54:58.872Z,24.70
2018-07-04T11:57:26.563Z,24.90
2018-07-04T12:02:22.110Z,25.50
2018-07-04T12:05:02.028Z,25.00
2018-07-04T12:07:35.971Z,25.40
2018-07-04T12:12:31.626Z,25.10
2018-07-04T12:14:59.329Z,24.90
2018-07-04T12:17:26.987Z,25.10
2018-07-04T12:19:54.654Z,25.10
2018-07-04T12:22:22.719Z,25.10
2018-07-04T12:24:50.402Z,25.20
2018-07-04T12:29:45.910Z,25.30
2018-07-04T12:32:13.643Z,25.30
2018-07-04T12:34:41.330Z,25.30
2018-07-04T12:37:09.086Z,25.40
2018-07-04T12:39:36.747Z,25.40
2018-07-04T12:42:04.503Z,25.40
2018-07-04T12:44:32.182Z,25.40
2018-07-04T12:47:00.371Z,25.40
2018-07-04T12:49:28.942Z,25.50
2018-07-04T12:51:56.616Z,25.50
2018-07-04T12:54:29.571Z,25.50
2018-07-04T12:57:09.598Z,25.50
2018-07-04T12:59:55.817Z,25.50
2018-07-04T13:02:42.026Z,25.60
2018-07-04T13:05:28.318Z,25.60
2018-07-04T13:08:14.555Z,25.60
2018-07-04T13:11:00.922Z,25.60
2018-07-04T13:13:47.083Z,25.70
2018-07-04T13:16:33.462Z,25.70
2018-07-04T13:19:19.609Z,25.70
2018-07-04T13:22:05.742Z,25.70
2018-07-04T13:24:51.761Z,25.80
2018-07-04T13:27:38.029Z,25.70
2018-07-04T13:30:24.407Z,25.70
2018-07-04T13:33:10.678Z,25.70
2018-07-04T13:35:56.734Z,25.70
2018-07-04T13:38:42.868Z,25.80
2018-07-04T13:41:29.066Z,25.80
2018-07-04T13:44:15.228Z,25.80
2018-07-04T13:47:01.536Z,25.80
2018-07-04T13:49:47.853Z,25.90
2018-07-04T13:52:34.654Z,25.90
2018-07-04T13:55:21.166Z,25.90
2018-07-04T13:58:07.375Z,25.90
2018-07-04T14:00:53.363Z,25.90
2018-07-04T14:04:09.312Z,26.20
2018-07-04T14:06:55.362Z,26.30
2018-07-04T14:09:41.765Z,25.90
2018-07-04T14:12:28.235Z,26.10
2018-07-04T14:15:14.495Z,25.90
2018-07-04T14:18:00.695Z,25.90
2018-07-04T14:20:46.930Z,26.10
2018-07-04T14:23:33.238Z,26.00
2018-07-04T14:26:19.550Z,26.10
2018-07-04T14:29:05.887Z,26.10
2018-07-04T14:31:52.629Z,26.10
2018-07-04T14:34:39.858Z,25.70
2018-07-04T14:37:26.162Z,25.80
2018-07-04T14:40:12.298Z,26.00
2018-07-04T14:42:58.435Z,26.10
2018-07-04T14:45:44.807Z,26.20
2018-07-04T14:48:30.939Z,25.90
2018-07-04T14:51:17.622Z,25.90
2018-07-04T14:54:03.968Z,26.00
2018-07-04T14:56:50.253Z,26.00
2018-07-04T14:59:36.416Z,26.00
2018-07-04T15:02:22.502Z,25.80
2018-07-04T15:05:08.754Z,25.70
2018-07-04T15:07:55.202Z,25.60
2018-07-04T15:10:41.345Z,25.40
2018-07-04T15:13:27.458Z,25.50
2018-07-04T15:16:13.647Z,25.50
2018-07-04T15:18:59.983Z,25.50
2018-07-04T15:21:46.456Z,25.80
2018-07-04T15:24:32.779Z,25.70
2018-07-04T15:27:19.003Z,25.90
2018-07-04T15:30:05.270Z,25.80
2018-07-04T15:35:31.670Z,25.90
2018-07-04T15:38:18.093Z,25.60
2018-07-04T15:41:04.343Z,25.50
2018-07-04T15:43:50.585Z,25.50
2018-07-04T15:46:36.879Z,25.30
2018-07-04T15:52:03.482Z,25.50
2018-07-04T15:54:49.698Z,25.50
2018-07-04T15:57:36.559Z,25.60
2018-07-04T16:00:23.300Z,25.70
2018-07-04T16:03:09.454Z,25.50
2018-07-04T16:05:55.775Z,25.90
2018-07-04T16:08:42.372Z,25.30
2018-07-04T16:11:28.472Z,25.10
2018-07-04T16:14:14.712Z,25.30
2018-07-04T16:17:00.870Z,25.40
2018-07-04T16:19:46.976Z,25.60
2018-07-04T16:22:33.363Z,25.80
2018-07-04T16:25:19.655Z,26.00
2018-07-04T16:28:05.760Z,25.80
2018-07-04T16:30:52.205Z,25.80
2018-07-04T16:33:38.471Z,25.60
2018-07-04T16:36:24.641Z,25.60
2018-07-04T16:39:10.890Z,25.70
2018-07-04T16:41:57.215Z,25.30
2018-07-04T16:44:43.699Z,25.40
2018-07-04T16:47:29.778Z,25.40
2018-07-04T16:50:15.821Z,25.10
2018-07-04T16:53:02.019Z,25.50
2018-07-04T16:55:48.219Z,27.10
2018-07-04T16:58:34.376Z,27.80
2018-07-04T17:01:20.542Z,28.00
2018-07-04T17:04:06.551Z,28.80
2018-07-04T17:06:52.690Z,28.50
2018-07-04T17:09:38.805Z,28.50
2018-07-04T17:12:24.900Z,28.50
2018-07-04T17:15:11.235Z,28.00
2018-07-04T17:17:57.647Z,27.50
2018-07-04T17:20:43.928Z,26.80
2018-07-04T17:23:30.414Z,26.70
2018-07-04T17:26:16.683Z,26.60
2018-07-04T17:29:03.090Z,26.70
2018-07-04T17:31:49.302Z,26.40
2018-07-04T17:34:35.704Z,26.80
2018-07-04T17:37:22.101Z,27.10
2018-07-04T17:40:08.287Z,26.80
2018-07-04T17:42:54.479Z,26.90
2018-07-04T17:45:40.658Z,26.60
2018-07-04T17:48:26.779Z,26.60
2018-07-04T17:51:12.886Z,25.90
2018-07-04T17:54:14.168Z,25.70
2018-07-04T17:57:00.249Z,25.40
2018-07-04T17:59:46.760Z,25.50
2018-07-04T18:02:32.905Z,25.00
2018-07-04T18:05:19.074Z,24.40
2018-07-04T18:08:05.155Z,23.70
2018-07-04T18:10:51.432Z,23.10
2018-07-04T18:13:37.825Z,22.90
2018-07-04T18:16:24.118Z,22.90
2018-07-04T18:19:10.510Z,22.90
2018-07-04T18:21:56.690Z,23.60
2018-07-04T18:24:43.364Z,24.20
2018-07-04T18:27:29.510Z,25.00
2018-07-04T18:32:56.086Z,25.40
2018-07-04T18:35:42.321Z,25.40
2018-07-04T18:38:28.502Z,25.30
2018-07-04T18:41:14.846Z,25.80
2018-07-04T18:44:00.981Z,24.80
2018-07-04T18:46:47.310Z,25.10
2018-07-04T18:49:33.550Z,25.40
2018-07-04T18:52:19.704Z,25.40
2018-07-04T18:55:06.035Z,23.70
2018-07-04T18:57:52.190Z,23.20
2018-07-04T19:03:18.846Z,22.80
2018-07-04T19:06:05.243Z,22.50
2018-07-04T19:08:51.456Z,22.70
2018-07-04T19:11:37.786Z,22.20
2018-07-04T19:14:23.922Z,22.10
2018-07-04T19:17:10.288Z,22.00
2018-07-04T19:19:56.590Z,21.70
2018-07-04T19:22:42.751Z,21.50
2018-07-04T19:28:09.335Z,21.50
2018-07-04T19:30:55.370Z,21.20
2018-07-04T19:33:41.587Z,20.90
2018-07-04T19:36:31.141Z,20.80
2018-07-04T19:39:17.170Z,20.70
2018-07-04T19:42:03.341Z,20.50
2018-07-04T19:44:49.891Z,20.40
2018-07-04T19:47:36.228Z,20.50
2018-07-04T19:50:22.467Z,20.30
2018-07-04T19:53:08.614Z,20.10
2018-07-04T19:55:55.008Z,20.00
2018-07-04T19:58:41.407Z,19.80
2018-07-04T20:01:27.555Z,19.80
2018-07-04T20:04:13.837Z,19.80
2018-07-04T20:09:40.314Z,19.60
2018-07-04T20:12:26.483Z,19.50
2018-07-04T20:15:12.646Z,19.30
2018-07-04T20:17:58.928Z,19.20
2018-07-04T20:20:45.364Z,19.10
2018-07-04T20:23:31.562Z,19.00
2018-07-04T20:26:36.550Z,19.00
2018-07-04T20:29:22.898Z,18.90
2018-07-04T20:32:09.282Z,18.90
2018-07-04T20:34:55.506Z,18.90
2018-07-04T20:37:41.921Z,18.80
2018-07-04T20:40:28.050Z,18.80
2018-07-04T20:43:14.781Z,18.70
2018-07-04T20:46:01.071Z,18.70
2018-07-04T20:48:47.351Z,18.70
2018-07-04T20:51:33.602Z,18.60
2018-07-04T20:54:20.074Z,18.50
2018-07-04T20:57:06.278Z,18.40
2018-07-04T20:59:52.654Z,18.30
2018-07-04T21:02:38.904Z,18.30
2018-07-04T21:08:52.764Z,18.20
2018-07-04T21:11:39.276Z,18.20
2018-07-04T21:14:25.641Z,18.20
2018-07-04T21:17:12.082Z,18.00
2018-07-04T21:19:58.426Z,18.00
2018-07-04T21:22:44.543Z,18.00
2018-07-04T21:25:30.858Z,17.90
2018-07-04T21:28:17.403Z,17.90
2018-07-04T21:31:03.782Z,17.80
2018-07-04T21:33:50.181Z,17.80
2018-07-04T21:36:36.450Z,17.70
2018-07-04T21:42:03.274Z,17.70
2018-07-04T21:44:49.674Z,17.70
2018-07-04T21:47:36.074Z,17.60
2018-07-04T21:50:22.409Z,17.60
2018-07-04T21:53:09.108Z,17.60
2018-07-04T21:56:00.734Z,17.50
2018-07-04T21:58:47.989Z,17.60
2018-07-04T22:01:34.542Z,17.50
2018-07-04T22:07:57.224Z,17.50
2018-07-04T22:10:43.438Z,17.50
2018-07-04T22:13:31.294Z,17.50
2018-07-04T22:16:17.559Z,17.30
2018-07-04T22:19:05.072Z,17.10
2018-07-04T22:21:51.639Z,17.10
2018-07-04T22:24:38.550Z,16.90
2018-07-04T22:27:24.846Z,16.90
2018-07-04T22:30:11.286Z,16.90
2018-07-04T22:35:45.120Z,16.80
2018-07-04T22:38:31.747Z,16.80
2018-07-04T22:41:20.426Z,16.70
2018-07-04T22:44:09.786Z,16.70
2018-07-04T22:46:56.175Z,16.60
2018-07-04T22:49:42.803Z,16.60
2018-07-04T22:52:29.387Z,16.60
2018-07-04T22:55:15.465Z,16.60
2018-07-04T22:58:01.779Z,16.60
2018-07-04T23:00:48.087Z,16.50
2018-07-04T23:03:34.250Z,16.40
2018-07-04T23:06:23.030Z,16.30
2018-07-04T23:09:09.434Z,16.30
2018-07-04T23:11:55.958Z,16.30
2018-07-04T23:14:42.354Z,16.10
2018-07-04T23:17:28.483Z,16.20
2018-07-04T23:20:14.949Z,16.30
2018-07-04T23:23:01.159Z,16.30
2018-07-04T23:25:47.531Z,16.30
2018-07-04T23:28:33.750Z,16.20
2018-07-04T23:31:20.007Z,16.20
2018-07-04T23:34:06.071Z,16.20
2018-07-04T23:39:32.584Z,16.00
2018-07-04T23:42:18.750Z,16.00
2018-07-04T23:45:05.093Z,16.10
2018-07-04T23:47:51.442Z,16.10
2018-07-04T23:50:37.874Z,16.00
2018-07-04T23:53:24.252Z,16.00
2018-07-04T23:56:10.621Z,15.90
